sensor_id;sensor_type;location;lat;lon;timestamp;P1;durP1;ratioP1;P2;durP2;ratioP2
26411;SDS011;59168;;;2022-08-03T00:01:21;6.72;;;3.42;;
26411;SDS011;59168;;;2022-08-03T00:03:46;9.23;;;3.90;;
26411;SDS011;59168;;;2022-08-03T00:06:12;7.13;;;3.40;;
26411;SDS011;59168;;;2022-08-03T00:08:37;5.97;;;3.58;;
26411;SDS011;59168;;;2022-08-03T00:11:03;4.10;;;3.67;;
26411;SDS011;59168;;;2022-08-03T00:13:31;6.82;;;3.60;;
26411;SDS011;59168;;;2022-08-03T00:15:57;6.53;;;3.60;;
26411;SDS011;59168;;;2022-08-03T00:18:23;6.65;;;3.67;;
26411;SDS011;59168;;;2022-08-03T00:20:48;7.68;;;3.70;;
26411;SDS011;59168;;;2022-08-03T00:23:14;10.20;;;3.35;;
26411;SDS011;59168;;;2022-08-03T00:25:40;6.43;;;3.55;;
26411;SDS011;59168;;;2022-08-03T00:28:06;5.85;;;3.58;;
26411;SDS011;59168;;;2022-08-03T00:30:32;5.05;;;3.45;;
26411;SDS011;59168;;;2022-08-03T00:32:58;4.68;;;3.20;;
26411;SDS011;59168;;;2022-08-03T00:35:25;7.72;;;3.10;;
26411;SDS011;59168;;;2022-08-03T00:37:50;5.07;;;3.10;;
26411;SDS011;59168;;;2022-08-03T00:40:17;4.00;;;2.90;;
26411;SDS011;59168;;;2022-08-03T00:42:46;6.55;;;3.35;;
26411;SDS011;59168;;;2022-08-03T00:45:17;6.03;;;3.17;;
26411;SDS011;59168;;;2022-08-03T00:47:45;4.28;;;2.80;;
26411;SDS011;59168;;;2022-08-03T00:50:11;6.82;;;3.25;;
26411;SDS011;59168;;;2022-08-03T00:52:37;4.43;;;3.10;;
26411;SDS011;59168;;;2022-08-03T00:55:04;6.28;;;3.05;;
26411;SDS011;59168;;;2022-08-03T00:57:31;5.80;;;3.28;;
26411;SDS011;59168;;;2022-08-03T00:59:57;4.43;;;3.30;;
26411;SDS011;59168;;;2022-08-03T01:02:24;6.22;;;3.20;;
26411;SDS011;59168;;;2022-08-03T01:04:50;5.47;;;3.80;;
26411;SDS011;59168;;;2022-08-03T01:07:19;5.47;;;3.15;;
26411;SDS011;59168;;;2022-08-03T01:10:12;4.32;;;2.92;;
26411;SDS011;59168;;;2022-08-03T01:15:35;4.75;;;3.00;;
26411;SDS011;59168;;;2022-08-03T01:18:19;6.22;;;3.65;;
26411;SDS011;59168;;;2022-08-03T01:20:54;5.65;;;3.20;;
26411;SDS011;59168;;;2022-08-03T01:32:02;3.45;;;3.03;;
26411;SDS011;59168;;;2022-08-03T01:34:35;5.70;;;2.63;;
26411;SDS011;59168;;;2022-08-03T01:37:07;4.90;;;3.20;;
26411;SDS011;59168;;;2022-08-03T01:39:35;6.30;;;3.20;;
26411;SDS011;59168;;;2022-08-03T01:42:04;5.82;;;3.47;;
26411;SDS011;59168;;;2022-08-03T01:44:33;4.32;;;3.30;;
26411;SDS011;59168;;;2022-08-03T01:47:04;6.85;;;2.97;;
26411;SDS011;59168;;;2022-08-03T01:49:32;6.40;;;2.90;;
26411;SDS011;59168;;;2022-08-03T01:52:02;4.82;;;3.20;;
26411;SDS011;59168;;;2022-08-03T01:54:29;5.05;;;3.45;;
26411;SDS011;59168;;;2022-08-03T01:57:00;10.05;;;3.40;;
26411;SDS011;59168;;;2022-08-03T01:59:27;5.35;;;3.25;;
26411;SDS011;59168;;;2022-08-03T02:01:54;3.65;;;2.83;;
26411;SDS011;59168;;;2022-08-03T02:04:23;6.32;;;3.10;;
26411;SDS011;59168;;;2022-08-03T02:06:51;6.35;;;3.55;;
26411;SDS011;59168;;;2022-08-03T02:09:19;6.43;;;3.55;;
26411;SDS011;59168;;;2022-08-03T02:11:46;5.15;;;3.38;;
26411;SDS011;59168;;;2022-08-03T02:14:12;3.42;;;3.13;;
26411;SDS011;59168;;;2022-08-03T02:16:40;9.82;;;3.50;;
26411;SDS011;59168;;;2022-08-03T02:19:07;3.28;;;2.95;;
26411;SDS011;59168;;;2022-08-03T02:21:35;6.00;;;3.35;;
26411;SDS011;59168;;;2022-08-03T02:24:02;5.68;;;3.25;;
26411;SDS011;59168;;;2022-08-03T02:26:29;4.03;;;3.30;;
26411;SDS011;59168;;;2022-08-03T02:28:56;6.00;;;3.50;;
26411;SDS011;59168;;;2022-08-03T02:31:26;5.50;;;3.33;;
26411;SDS011;59168;;;2022-08-03T02:33:56;3.53;;;3.22;;
26411;SDS011;59168;;;2022-08-03T02:36:27;6.80;;;3.67;;
26411;SDS011;59168;;;2022-08-03T02:38:55;5.28;;;3.65;;
26411;SDS011;59168;;;2022-08-03T02:41:24;4.22;;;3.70;;
26411;SDS011;59168;;;2022-08-03T02:43:54;6.90;;;3.58;;
26411;SDS011;59168;;;2022-08-03T02:46:24;6.40;;;3.65;;
26411;SDS011;59168;;;2022-08-03T02:48:56;7.75;;;4.20;;
26411;SDS011;59168;;;2022-08-03T02:51:24;5.75;;;4.50;;
26411;SDS011;59168;;;2022-08-03T02:53:53;6.45;;;4.82;;
26411;SDS011;59168;;;2022-08-03T02:56:22;5.72;;;4.70;;
26411;SDS011;59168;;;2022-08-03T02:58:49;7.28;;;4.63;;
26411;SDS011;59168;;;2022-08-03T03:01:18;6.15;;;3.83;;
26411;SDS011;59168;;;2022-08-03T03:03:45;5.03;;;3.97;;
26411;SDS011;59168;;;2022-08-03T03:06:13;4.72;;;3.85;;
26411;SDS011;59168;;;2022-08-03T03:08:41;6.85;;;4.38;;
26411;SDS011;59168;;;2022-08-03T03:11:07;6.72;;;4.43;;
26411;SDS011;59168;;;2022-08-03T03:13:34;5.82;;;4.60;;
26411;SDS011;59168;;;2022-08-03T03:16:01;5.38;;;4.13;;
26411;SDS011;59168;;;2022-08-03T03:18:30;6.15;;;4.97;;
26411;SDS011;59168;;;2022-08-03T03:20:56;5.13;;;4.57;;
26411;SDS011;59168;;;2022-08-03T03:23:24;7.10;;;4.40;;
26411;SDS011;59168;;;2022-08-03T03:25:51;7.57;;;4.80;;
26411;SDS011;59168;;;2022-08-03T03:28:19;6.60;;;5.00;;
26411;SDS011;59168;;;2022-08-03T03:30:47;5.45;;;4.78;;
26411;SDS011;59168;;;2022-08-03T03:33:13;9.48;;;5.32;;
26411;SDS011;59168;;;2022-08-03T03:35:39;6.10;;;4.65;;
26411;SDS011;59168;;;2022-08-03T03:38:06;6.43;;;5.30;;
26411;SDS011;59168;;;2022-08-03T03:40:35;7.65;;;4.75;;
26411;SDS011;59168;;;2022-08-03T03:43:02;6.13;;;4.97;;
26411;SDS011;59168;;;2022-08-03T03:45:33;8.88;;;5.03;;
26411;SDS011;59168;;;2022-08-03T03:48:00;11.45;;;5.45;;
26411;SDS011;59168;;;2022-08-03T03:50:27;12.65;;;5.55;;
26411;SDS011;59168;;;2022-08-03T03:52:56;12.32;;;5.70;;
26411;SDS011;59168;;;2022-08-03T03:55:21;12.38;;;6.10;;
26411;SDS011;59168;;;2022-08-03T03:57:47;7.50;;;5.95;;
26411;SDS011;59168;;;2022-08-03T04:00:13;10.82;;;5.35;;
26411;SDS011;59168;;;2022-08-03T04:02:40;11.73;;;5.95;;
26411;SDS011;59168;;;2022-08-03T04:05:06;8.45;;;5.18;;
26411;SDS011;59168;;;2022-08-03T04:07:58;9.15;;;5.60;;
26411;SDS011;59168;;;2022-08-03T04:10:47;17.92;;;6.93;;
26411;SDS011;59168;;;2022-08-03T04:13:22;17.88;;;5.90;;
26411;SDS011;59168;;;2022-08-03T04:15:51;10.13;;;6.18;;
26411;SDS011;59168;;;2022-08-03T04:18:19;10.80;;;6.35;;
26411;SDS011;59168;;;2022-08-03T04:20:46;9.73;;;6.38;;
26411;SDS011;59168;;;2022-08-03T04:23:13;11.10;;;6.07;;
26411;SDS011;59168;;;2022-08-03T04:25:41;8.38;;;5.88;;
26411;SDS011;59168;;;2022-08-03T04:28:08;6.05;;;5.43;;
26411;SDS011;59168;;;2022-08-03T04:30:35;10.52;;;5.72;;
26411;SDS011;59168;;;2022-08-03T04:33:02;7.40;;;5.32;;
26411;SDS011;59168;;;2022-08-03T04:35:29;6.55;;;5.18;;
26411;SDS011;59168;;;2022-08-03T04:37:58;8.65;;;4.72;;
26411;SDS011;59168;;;2022-08-03T04:40:29;14.70;;;4.85;;
26411;SDS011;59168;;;2022-08-03T04:42:59;9.75;;;4.85;;
26411;SDS011;59168;;;2022-08-03T04:45:26;10.90;;;4.50;;
26411;SDS011;59168;;;2022-08-03T04:47:54;7.90;;;4.18;;
26411;SDS011;59168;;;2022-08-03T04:50:21;35.45;;;5.85;;
26411;SDS011;59168;;;2022-08-03T04:52:47;28.02;;;5.50;;
26411;SDS011;59168;;;2022-08-03T04:55:24;10.82;;;3.95;;
26411;SDS011;59168;;;2022-08-03T04:57:51;13.40;;;4.00;;
26411;SDS011;59168;;;2022-08-03T05:00:16;23.60;;;4.90;;
26411;SDS011;59168;;;2022-08-03T05:02:45;17.65;;;4.32;;
26411;SDS011;59168;;;2022-08-03T05:05:10;21.33;;;4.63;;
26411;SDS011;59168;;;2022-08-03T05:07:36;18.05;;;4.28;;
26411;SDS011;59168;;;2022-08-03T05:10:06;9.68;;;3.40;;
26411;SDS011;59168;;;2022-08-03T05:12:32;14.65;;;3.10;;
26411;SDS011;59168;;;2022-08-03T05:14:59;12.40;;;3.58;;
26411;SDS011;59168;;;2022-08-03T05:17:25;8.38;;;3.35;;
26411;SDS011;59168;;;2022-08-03T05:19:51;10.70;;;3.58;;
26411;SDS011;59168;;;2022-08-03T05:22:16;9.35;;;3.15;;
26411;SDS011;59168;;;2022-08-03T05:24:42;15.07;;;3.58;;
26411;SDS011;59168;;;2022-08-03T05:27:07;8.23;;;3.00;;
26411;SDS011;59168;;;2022-08-03T05:29:33;5.10;;;2.83;;
26411;SDS011;59168;;;2022-08-03T05:31:59;9.85;;;2.65;;
26411;SDS011;59168;;;2022-08-03T05:34:25;10.73;;;3.08;;
26411;SDS011;59168;;;2022-08-03T05:36:51;11.18;;;2.70;;
26411;SDS011;59168;;;2022-08-03T05:39:17;11.55;;;3.33;;
26411;SDS011;59168;;;2022-08-03T05:41:42;5.70;;;2.70;;
26411;SDS011;59168;;;2022-08-03T05:44:08;9.32;;;3.00;;
26411;SDS011;59168;;;2022-08-03T05:46:33;7.43;;;2.80;;
26411;SDS011;59168;;;2022-08-03T05:48:59;6.43;;;2.55;;
26411;SDS011;59168;;;2022-08-03T05:51:25;8.15;;;2.40;;
26411;SDS011;59168;;;2022-08-03T05:53:51;8.43;;;2.88;;
26411;SDS011;59168;;;2022-08-03T05:56:20;4.43;;;2.20;;
26411;SDS011;59168;;;2022-08-03T05:58:47;6.57;;;2.50;;
26411;SDS011;59168;;;2022-08-03T06:01:13;8.23;;;2.63;;
26411;SDS011;59168;;;2022-08-03T06:03:39;9.48;;;2.50;;
26411;SDS011;59168;;;2022-08-03T06:06:05;10.50;;;2.65;;
26411;SDS011;59168;;;2022-08-03T06:08:31;6.95;;;2.83;;
26411;SDS011;59168;;;2022-08-03T06:10:56;12.30;;;2.53;;
26411;SDS011;59168;;;2022-08-03T06:13:22;6.35;;;1.83;;
26411;SDS011;59168;;;2022-08-03T06:15:47;9.10;;;2.15;;
26411;SDS011;59168;;;2022-08-03T06:18:13;6.70;;;2.03;;
26411;SDS011;59168;;;2022-08-03T06:20:38;14.27;;;3.05;;
26411;SDS011;59168;;;2022-08-03T06:23:04;9.13;;;2.13;;
26411;SDS011;59168;;;2022-08-03T06:25:30;13.65;;;2.55;;
26411;SDS011;59168;;;2022-08-03T06:27:55;7.47;;;2.47;;
26411;SDS011;59168;;;2022-08-03T06:30:21;9.10;;;2.38;;
26411;SDS011;59168;;;2022-08-03T06:32:47;5.10;;;1.73;;
26411;SDS011;59168;;;2022-08-03T06:35:12;3.08;;;1.73;;
26411;SDS011;59168;;;2022-08-03T06:37:44;3.42;;;1.60;;
26411;SDS011;59168;;;2022-08-03T06:40:12;2.50;;;1.88;;
26411;SDS011;59168;;;2022-08-03T06:42:39;3.08;;;1.55;;
26411;SDS011;59168;;;2022-08-03T06:45:06;5.60;;;1.85;;
26411;SDS011;59168;;;2022-08-03T06:47:33;3.20;;;1.85;;
26411;SDS011;59168;;;2022-08-03T06:49:59;2.78;;;1.85;;
26411;SDS011;59168;;;2022-08-03T06:52:25;4.80;;;1.83;;
26411;SDS011;59168;;;2022-08-03T06:54:50;2.88;;;1.80;;
26411;SDS011;59168;;;2022-08-03T06:57:16;6.43;;;1.83;;
26411;SDS011;59168;;;2022-08-03T06:59:43;3.17;;;1.55;;
26411;SDS011;59168;;;2022-08-03T07:02:08;1.88;;;1.50;;
26411;SDS011;59168;;;2022-08-03T07:04:35;5.00;;;2.47;;
26411;SDS011;59168;;;2022-08-03T07:07:01;3.55;;;1.60;;
26411;SDS011;59168;;;2022-08-03T07:09:26;2.05;;;1.60;;
26411;SDS011;59168;;;2022-08-03T07:11:52;3.83;;;1.75;;
26411;SDS011;59168;;;2022-08-03T07:14:19;5.72;;;1.80;;
26411;SDS011;59168;;;2022-08-03T07:16:45;5.93;;;1.70;;
26411;SDS011;59168;;;2022-08-03T07:19:10;5.82;;;2.10;;
26411;SDS011;59168;;;2022-08-03T07:21:36;5.70;;;2.00;;
26411;SDS011;59168;;;2022-08-03T07:24:02;3.33;;;1.88;;
26411;SDS011;59168;;;2022-08-03T07:26:28;2.80;;;1.40;;
26411;SDS011;59168;;;2022-08-03T07:28:53;2.83;;;1.70;;
26411;SDS011;59168;;;2022-08-03T07:31:19;3.50;;;1.35;;
26411;SDS011;59168;;;2022-08-03T07:33:44;2.15;;;1.27;;
26411;SDS011;59168;;;2022-08-03T07:36:10;1.98;;;1.50;;
26411;SDS011;59168;;;2022-08-03T07:38:36;1.70;;;1.52;;
26411;SDS011;59168;;;2022-08-03T07:41:02;6.57;;;2.20;;
26411;SDS011;59168;;;2022-08-03T07:43:27;1.55;;;1.45;;
26411;SDS011;59168;;;2022-08-03T07:45:53;2.65;;;1.70;;
26411;SDS011;59168;;;2022-08-03T07:48:19;2.22;;;1.63;;
26411;SDS011;59168;;;2022-08-03T07:50:44;4.47;;;1.73;;
26411;SDS011;59168;;;2022-08-03T07:53:10;2.38;;;1.70;;
26411;SDS011;59168;;;2022-08-03T07:55:36;1.75;;;1.60;;
26411;SDS011;59168;;;2022-08-03T07:58:03;1.83;;;1.70;;
26411;SDS011;59168;;;2022-08-03T08:00:28;4.45;;;1.98;;
26411;SDS011;59168;;;2022-08-03T08:02:55;3.13;;;1.90;;
26411;SDS011;59168;;;2022-08-03T08:05:20;3.05;;;1.58;;
26411;SDS011;59168;;;2022-08-03T08:07:46;3.33;;;1.30;;
26411;SDS011;59168;;;2022-08-03T08:10:11;1.98;;;1.65;;
26411;SDS011;59168;;;2022-08-03T08:12:38;2.92;;;1.75;;
26411;SDS011;59168;;;2022-08-03T08:15:04;1.92;;;1.55;;
26411;SDS011;59168;;;2022-08-03T08:17:39;1.95;;;1.73;;
26411;SDS011;59168;;;2022-08-03T08:20:27;2.10;;;1.65;;
26411;SDS011;59168;;;2022-08-03T08:23:00;2.13;;;1.70;;
26411;SDS011;59168;;;2022-08-03T08:25:28;4.80;;;1.50;;
26411;SDS011;59168;;;2022-08-03T08:27:55;3.30;;;1.55;;
26411;SDS011;59168;;;2022-08-03T08:30:21;4.22;;;1.50;;
26411;SDS011;59168;;;2022-08-03T08:32:48;1.58;;;1.20;;
26411;SDS011;59168;;;2022-08-03T08:35:15;2.75;;;1.50;;
26411;SDS011;59168;;;2022-08-03T08:37:41;3.40;;;1.80;;
26411;SDS011;59168;;;2022-08-03T08:40:08;1.60;;;1.50;;
26411;SDS011;59168;;;2022-08-03T08:42:36;1.83;;;1.67;;
26411;SDS011;59168;;;2022-08-03T08:45:03;1.42;;;1.33;;
26411;SDS011;59168;;;2022-08-03T08:47:31;3.88;;;1.58;;
26411;SDS011;59168;;;2022-08-03T08:49:58;2.42;;;1.60;;
26411;SDS011;59168;;;2022-08-03T08:52:28;2.22;;;1.50;;
26411;SDS011;59168;;;2022-08-03T08:54:58;5.15;;;1.75;;
26411;SDS011;59168;;;2022-08-03T08:57:28;3.20;;;1.73;;
26411;SDS011;59168;;;2022-08-03T08:59:55;1.50;;;1.40;;
26411;SDS011;59168;;;2022-08-03T09:02:22;1.65;;;1.40;;
26411;SDS011;59168;;;2022-08-03T09:04:48;2.20;;;1.30;;
26411;SDS011;59168;;;2022-08-03T09:07:15;4.55;;;1.83;;
26411;SDS011;59168;;;2022-08-03T09:09:41;2.75;;;1.55;;
26411;SDS011;59168;;;2022-08-03T09:12:07;1.45;;;1.30;;
26411;SDS011;59168;;;2022-08-03T09:14:33;2.83;;;1.30;;
26411;SDS011;59168;;;2022-08-03T09:17:00;3.28;;;1.55;;
26411;SDS011;59168;;;2022-08-03T09:19:27;2.72;;;1.40;;
26411;SDS011;59168;;;2022-08-03T09:22:11;2.15;;;1.50;;
26411;SDS011;59168;;;2022-08-03T09:27:42;1.50;;;1.40;;
26411;SDS011;59168;;;2022-08-03T09:30:13;3.53;;;1.30;;
26411;SDS011;59168;;;2022-08-03T09:32:40;4.43;;;1.50;;
26411;SDS011;59168;;;2022-08-03T09:35:06;3.70;;;1.65;;
26411;SDS011;59168;;;2022-08-03T09:37:32;2.10;;;1.55;;
26411;SDS011;59168;;;2022-08-03T09:39:58;2.97;;;2.67;;
26411;SDS011;59168;;;2022-08-03T09:42:24;2.70;;;1.30;;
26411;SDS011;59168;;;2022-08-03T09:44:51;1.33;;;1.23;;
26411;SDS011;59168;;;2022-08-03T09:47:27;2.35;;;1.50;;
26411;SDS011;59168;;;2022-08-03T09:50:04;1.63;;;1.40;;
26411;SDS011;59168;;;2022-08-03T09:52:31;1.73;;;1.40;;
26411;SDS011;59168;;;2022-08-03T09:54:59;1.98;;;1.88;;
26411;SDS011;59168;;;2022-08-03T09:57:26;2.95;;;1.50;;
26411;SDS011;59168;;;2022-08-03T09:59:54;2.92;;;1.52;;
26411;SDS011;59168;;;2022-08-03T10:02:35;1.60;;;1.50;;
26411;SDS011;59168;;;2022-08-03T10:05:01;3.70;;;1.30;;
26411;SDS011;59168;;;2022-08-03T10:07:27;2.30;;;1.13;;
26411;SDS011;59168;;;2022-08-03T10:10:00;1.50;;;1.20;;
26411;SDS011;59168;;;2022-08-03T10:12:26;1.65;;;1.30;;
26411;SDS011;59168;;;2022-08-03T10:14:53;2.13;;;1.60;;
26411;SDS011;59168;;;2022-08-03T10:17:20;3.95;;;1.88;;
26411;SDS011;59168;;;2022-08-03T10:19:46;2.97;;;1.63;;
26411;SDS011;59168;;;2022-08-03T10:22:13;2.63;;;1.40;;
26411;SDS011;59168;;;2022-08-03T10:27:40;3.67;;;1.52;;
26411;SDS011;59168;;;2022-08-03T10:30:09;2.28;;;1.27;;
26411;SDS011;59168;;;2022-08-03T10:32:42;2.20;;;1.50;;
26411;SDS011;59168;;;2022-08-03T10:35:13;1.98;;;1.30;;
26411;SDS011;59168;;;2022-08-03T10:37:44;2.17;;;1.73;;
26411;SDS011;59168;;;2022-08-03T10:42:40;1.40;;;1.30;;
26411;SDS011;59168;;;2022-08-03T10:45:10;1.50;;;1.40;;
26411;SDS011;59168;;;2022-08-03T10:47:42;1.88;;;1.10;;
26411;SDS011;59168;;;2022-08-03T10:50:08;1.55;;;1.45;;
26411;SDS011;59168;;;2022-08-03T10:52:34;1.60;;;1.30;;
26411;SDS011;59168;;;2022-08-03T10:55:00;1.83;;;1.50;;
26411;SDS011;59168;;;2022-08-03T10:57:45;3.65;;;2.00;;
26411;SDS011;59168;;;2022-08-03T11:00:15;1.67;;;1.38;;
26411;SDS011;59168;;;2022-08-03T11:05:38;2.50;;;1.45;;
26411;SDS011;59168;;;2022-08-03T11:10:46;1.30;;;1.20;;
26411;SDS011;59168;;;2022-08-03T11:13:14;1.75;;;1.35;;
26411;SDS011;59168;;;2022-08-03T11:15:43;1.45;;;1.35;;
26411;SDS011;59168;;;2022-08-03T11:18:12;2.45;;;1.42;;
26411;SDS011;59168;;;2022-08-03T11:20:49;3.67;;;1.30;;
26411;SDS011;59168;;;2022-08-03T11:23:17;2.08;;;1.20;;
26411;SDS011;59168;;;2022-08-03T11:28:36;2.65;;;1.35;;
26411;SDS011;59168;;;2022-08-03T11:34:05;2.25;;;1.30;;
26411;SDS011;59168;;;2022-08-03T11:39:38;1.85;;;1.10;;
26411;SDS011;59168;;;2022-08-03T11:42:49;1.60;;;1.50;;
26411;SDS011;59168;;;2022-08-03T11:44:57;2.47;;;1.30;;
26411;SDS011;59168;;;2022-08-03T11:47:25;1.77;;;1.40;;
26411;SDS011;59168;;;2022-08-03T11:49:53;1.33;;;1.25;;
26411;SDS011;59168;;;2022-08-03T11:52:19;3.88;;;1.52;;
26411;SDS011;59168;;;2022-08-03T11:54:47;1.30;;;1.20;;
26411;SDS011;59168;;;2022-08-03T11:57:32;1.13;;;1.02;;
26411;SDS011;59168;;;2022-08-03T11:59:59;2.33;;;1.38;;
26411;SDS011;59168;;;2022-08-03T12:02:25;1.40;;;1.40;;
26411;SDS011;59168;;;2022-08-03T12:04:52;2.60;;;1.38;;
26411;SDS011;59168;;;2022-08-03T12:07:22;3.10;;;1.40;;
26411;SDS011;59168;;;2022-08-03T12:12:33;1.45;;;1.35;;
26411;SDS011;59168;;;2022-08-03T12:14:59;1.20;;;1.10;;
26411;SDS011;59168;;;2022-08-03T12:17:37;1.67;;;1.30;;
26411;SDS011;59168;;;2022-08-03T12:20:05;3.88;;;1.42;;
26411;SDS011;59168;;;2022-08-03T12:22:33;4.13;;;1.33;;
26411;SDS011;59168;;;2022-08-03T12:25:01;4.15;;;1.50;;
26411;SDS011;59168;;;2022-08-03T12:27:27;2.17;;;1.25;;
26411;SDS011;59168;;;2022-08-03T12:29:56;1.98;;;1.70;;
26411;SDS011;59168;;;2022-08-03T12:32:22;1.55;;;1.30;;
26411;SDS011;59168;;;2022-08-03T12:34:50;1.30;;;1.20;;
26411;SDS011;59168;;;2022-08-03T12:37:19;3.10;;;1.45;;
26411;SDS011;59168;;;2022-08-03T12:39:52;1.50;;;1.40;;
26411;SDS011;59168;;;2022-08-03T12:42:20;2.72;;;1.30;;
26411;SDS011;59168;;;2022-08-03T12:44:46;1.75;;;1.33;;
26411;SDS011;59168;;;2022-08-03T12:47:14;6.43;;;2.50;;
26411;SDS011;59168;;;2022-08-03T12:49:49;2.30;;;1.42;;
26411;SDS011;59168;;;2022-08-03T12:52:17;1.88;;;1.65;;
26411;SDS011;59168;;;2022-08-03T12:54:53;1.73;;;1.30;;
26411;SDS011;59168;;;2022-08-03T12:57:22;3.70;;;1.70;;
26411;SDS011;59168;;;2022-08-03T12:59:48;3.28;;;1.77;;
26411;SDS011;59168;;;2022-08-03T13:04:47;1.55;;;1.45;;
26411;SDS011;59168;;;2022-08-03T13:07:14;2.45;;;1.50;;
26411;SDS011;59168;;;2022-08-03T13:12:20;1.48;;;1.40;;
26411;SDS011;59168;;;2022-08-03T13:14:48;1.77;;;1.13;;
26411;SDS011;59168;;;2022-08-03T13:19:44;2.15;;;1.40;;
26411;SDS011;59168;;;2022-08-03T13:24:50;2.67;;;1.52;;
26411;SDS011;59168;;;2022-08-03T13:27:21;1.63;;;1.30;;
26411;SDS011;59168;;;2022-08-03T13:29:47;1.85;;;1.50;;
26411;SDS011;59168;;;2022-08-03T13:32:12;1.70;;;1.33;;
26411;SDS011;59168;;;2022-08-03T13:34:38;3.25;;;1.60;;
26411;SDS011;59168;;;2022-08-03T13:37:04;2.65;;;1.40;;
26411;SDS011;59168;;;2022-08-03T13:39:30;8.07;;;2.20;;
26411;SDS011;59168;;;2022-08-03T13:41:55;1.05;;;1.05;;
26411;SDS011;59168;;;2022-08-03T13:44:21;1.48;;;1.38;;
26411;SDS011;59168;;;2022-08-03T13:46:47;2.28;;;1.40;;
26411;SDS011;59168;;;2022-08-03T13:49:13;1.60;;;1.40;;
26411;SDS011;59168;;;2022-08-03T13:51:39;2.45;;;1.83;;
26411;SDS011;59168;;;2022-08-03T13:54:04;1.50;;;1.40;;
26411;SDS011;59168;;;2022-08-03T13:56:30;1.70;;;1.55;;
26411;SDS011;59168;;;2022-08-03T13:58:56;1.75;;;1.38;;
26411;SDS011;59168;;;2022-08-03T14:01:22;1.60;;;1.50;;
26411;SDS011;59168;;;2022-08-03T14:03:48;3.28;;;1.52;;
26411;SDS011;59168;;;2022-08-03T14:06:18;1.63;;;1.52;;
26411;SDS011;59168;;;2022-08-03T14:08:44;2.78;;;1.55;;
26411;SDS011;59168;;;2022-08-03T14:11:10;3.83;;;1.58;;
26411;SDS011;59168;;;2022-08-03T14:13:36;1.42;;;1.30;;
26411;SDS011;59168;;;2022-08-03T14:16:02;1.88;;;1.55;;
26411;SDS011;59168;;;2022-08-03T14:18:28;2.03;;;1.50;;
26411;SDS011;59168;;;2022-08-03T14:20:53;3.88;;;1.50;;
26411;SDS011;59168;;;2022-08-03T14:23:19;2.88;;;1.52;;
26411;SDS011;59168;;;2022-08-03T14:25:45;1.92;;;1.30;;
26411;SDS011;59168;;;2022-08-03T14:28:10;1.80;;;1.70;;
26411;SDS011;59168;;;2022-08-03T14:30:36;1.85;;;1.73;;
26411;SDS011;59168;;;2022-08-03T14:33:02;2.45;;;1.70;;
26411;SDS011;59168;;;2022-08-03T14:35:27;1.60;;;1.50;;
26411;SDS011;59168;;;2022-08-03T14:37:53;1.45;;;1.35;;
26411;SDS011;59168;;;2022-08-03T14:40:19;3.00;;;1.75;;
26411;SDS011;59168;;;2022-08-03T14:42:45;1.85;;;1.75;;
26411;SDS011;59168;;;2022-08-03T14:45:11;4.50;;;1.73;;
26411;SDS011;59168;;;2022-08-03T14:47:37;5.00;;;2.03;;
26411;SDS011;59168;;;2022-08-03T14:50:04;2.78;;;1.60;;
26411;SDS011;59168;;;2022-08-03T14:52:31;4.25;;;2.50;;
26411;SDS011;59168;;;2022-08-03T14:54:57;2.13;;;1.80;;
26411;SDS011;59168;;;2022-08-03T14:57:23;5.07;;;2.10;;
26411;SDS011;59168;;;2022-08-03T14:59:49;4.07;;;2.25;;
26411;SDS011;59168;;;2022-08-03T15:02:15;2.03;;;1.60;;
26411;SDS011;59168;;;2022-08-03T15:04:41;2.03;;;1.92;;
26411;SDS011;59168;;;2022-08-03T15:07:06;2.28;;;1.70;;
26411;SDS011;59168;;;2022-08-03T15:09:32;2.03;;;1.83;;
26411;SDS011;59168;;;2022-08-03T15:11:58;4.20;;;2.10;;
26411;SDS011;59168;;;2022-08-03T15:14:24;2.70;;;1.98;;
26411;SDS011;59168;;;2022-08-03T15:16:49;2.00;;;1.80;;
26411;SDS011;59168;;;2022-08-03T15:19:15;1.92;;;1.83;;
26411;SDS011;59168;;;2022-08-03T15:21:41;2.50;;;1.73;;
26411;SDS011;59168;;;2022-08-03T15:24:07;3.00;;;1.75;;
26411;SDS011;59168;;;2022-08-03T15:26:32;2.95;;;1.65;;
26411;SDS011;59168;;;2022-08-03T15:28:58;1.80;;;1.70;;
26411;SDS011;59168;;;2022-08-03T15:31:24;1.92;;;1.83;;
26411;SDS011;59168;;;2022-08-03T15:33:50;2.25;;;2.10;;
26411;SDS011;59168;;;2022-08-03T15:36:19;3.13;;;1.90;;
26411;SDS011;59168;;;2022-08-03T15:38:45;2.47;;;2.10;;
26411;SDS011;59168;;;2022-08-03T15:41:12;2.20;;;2.10;;
26411;SDS011;59168;;;2022-08-03T15:43:38;2.60;;;2.22;;
26411;SDS011;59168;;;2022-08-03T15:46:04;2.33;;;1.98;;
26411;SDS011;59168;;;2022-08-03T15:48:30;2.00;;;1.90;;
26411;SDS011;59168;;;2022-08-03T15:50:56;3.53;;;1.80;;
26411;SDS011;59168;;;2022-08-03T15:53:21;2.95;;;1.77;;
26411;SDS011;59168;;;2022-08-03T15:55:47;2.17;;;1.80;;
26411;SDS011;59168;;;2022-08-03T15:58:13;4.78;;;2.28;;
26411;SDS011;59168;;;2022-08-03T16:00:39;2.65;;;2.20;;
26411;SDS011;59168;;;2022-08-03T16:03:06;2.20;;;2.05;;
26411;SDS011;59168;;;2022-08-03T16:05:31;2.95;;;1.90;;
26411;SDS011;59168;;;2022-08-03T16:07:57;1.70;;;1.60;;
26411;SDS011;59168;;;2022-08-03T16:10:23;1.75;;;1.63;;
26411;SDS011;59168;;;2022-08-03T16:12:51;3.95;;;1.80;;
26411;SDS011;59168;;;2022-08-03T16:15:17;2.08;;;1.95;;
26411;SDS011;59168;;;2022-08-03T16:17:43;2.22;;;2.03;;
26411;SDS011;59168;;;2022-08-03T16:20:09;2.10;;;2.00;;
26411;SDS011;59168;;;2022-08-03T16:22:41;3.13;;;1.70;;
26411;SDS011;59168;;;2022-08-03T16:25:09;2.55;;;1.80;;
26411;SDS011;59168;;;2022-08-03T16:27:35;4.32;;;1.63;;
26411;SDS011;59168;;;2022-08-03T16:30:02;1.65;;;1.50;;
26411;SDS011;59168;;;2022-08-03T16:32:28;3.80;;;1.73;;
26411;SDS011;59168;;;2022-08-03T16:34:54;3.17;;;1.80;;
26411;SDS011;59168;;;2022-08-03T16:37:19;5.50;;;1.90;;
26411;SDS011;59168;;;2022-08-03T16:39:45;1.80;;;1.70;;
26411;SDS011;59168;;;2022-08-03T16:42:10;2.40;;;1.60;;
26411;SDS011;59168;;;2022-08-03T16:44:36;2.28;;;1.90;;
26411;SDS011;59168;;;2022-08-03T16:47:02;5.15;;;1.85;;
26411;SDS011;59168;;;2022-08-03T16:49:27;1.95;;;1.85;;
26411;SDS011;59168;;;2022-08-03T16:51:53;4.28;;;1.88;;
26411;SDS011;59168;;;2022-08-03T16:54:19;3.03;;;2.10;;
26411;SDS011;59168;;;2022-08-03T16:56:45;4.45;;;2.50;;
26411;SDS011;59168;;;2022-08-03T16:59:11;1.85;;;1.75;;
26411;SDS011;59168;;;2022-08-03T17:01:37;1.70;;;1.40;;
26411;SDS011;59168;;;2022-08-03T17:04:04;1.90;;;1.50;;
26411;SDS011;59168;;;2022-08-03T17:06:34;2.08;;;1.92;;
26411;SDS011;59168;;;2022-08-03T17:09:12;2.95;;;1.80;;
26411;SDS011;59168;;;2022-08-03T17:11:40;3.38;;;1.90;;
26411;SDS011;59168;;;2022-08-03T17:14:07;2.65;;;1.63;;
26411;SDS011;59168;;;2022-08-03T17:16:33;3.05;;;1.60;;
26411;SDS011;59168;;;2022-08-03T17:19:01;1.75;;;1.65;;
26411;SDS011;59168;;;2022-08-03T17:21:32;5.47;;;1.92;;
26411;SDS011;59168;;;2022-08-03T17:24:05;1.90;;;1.80;;
26411;SDS011;59168;;;2022-08-03T17:26:43;2.55;;;1.80;;
26411;SDS011;59168;;;2022-08-03T17:29:11;2.42;;;1.90;;
26411;SDS011;59168;;;2022-08-03T17:31:40;4.22;;;2.75;;
26411;SDS011;59168;;;2022-08-03T17:34:06;3.00;;;2.22;;
26411;SDS011;59168;;;2022-08-03T17:36:31;2.92;;;1.90;;
26411;SDS011;59168;;;2022-08-03T17:38:57;2.05;;;1.75;;
26411;SDS011;59168;;;2022-08-03T17:41:24;3.97;;;2.35;;
26411;SDS011;59168;;;2022-08-03T17:43:50;6.25;;;3.88;;
26411;SDS011;59168;;;2022-08-03T17:46:19;2.97;;;1.98;;
26411;SDS011;59168;;;2022-08-03T17:48:46;2.25;;;1.90;;
26411;SDS011;59168;;;2022-08-03T17:54:43;2.20;;;2.10;;
26411;SDS011;59168;;;2022-08-03T17:57:10;3.20;;;2.50;;
26411;SDS011;59168;;;2022-08-03T18:05:56;1.83;;;1.73;;
26411;SDS011;59168;;;2022-08-03T18:08:28;3.03;;;2.72;;
26411;SDS011;59168;;;2022-08-03T18:10:59;7.68;;;1.98;;
26411;SDS011;59168;;;2022-08-03T18:13:28;2.40;;;2.20;;
26411;SDS011;59168;;;2022-08-03T18:16:13;2.45;;;2.25;;
26411;SDS011;59168;;;2022-08-03T18:18:46;4.03;;;2.00;;
26411;SDS011;59168;;;2022-08-03T18:21:18;6.18;;;2.00;;
26411;SDS011;59168;;;2022-08-03T18:23:49;3.65;;;1.77;;
26411;SDS011;59168;;;2022-08-03T18:26:16;5.22;;;3.40;;
26411;SDS011;59168;;;2022-08-03T18:28:42;3.33;;;2.20;;
26411;SDS011;59168;;;2022-08-03T18:31:08;3.95;;;1.85;;
26411;SDS011;59168;;;2022-08-03T18:33:37;2.00;;;1.60;;
26411;SDS011;59168;;;2022-08-03T18:36:06;3.05;;;2.03;;
26411;SDS011;59168;;;2022-08-03T18:38:34;2.35;;;1.98;;
26411;SDS011;59168;;;2022-08-03T18:41:03;4.95;;;2.13;;
26411;SDS011;59168;;;2022-08-03T18:43:31;6.57;;;2.22;;
26411;SDS011;59168;;;2022-08-03T18:45:57;2.38;;;2.15;;